createdAt,value
2018-03-24T00:00:18.031Z,95.70
2018-03-24T00:02:46.287Z,96.37
2018-03-24T00:05:14.236Z,96.35
2018-03-24T00:07:42.210Z,96.39
2018-03-24T00:10:10.057Z,96.81
2018-03-24T00:12:38.069Z,97.58
2018-03-24T00:15:06.110Z,98.22
2018-03-24T00:17:33.811Z,98.70
2018-03-24T00:20:01.504Z,98.86
2018-03-24T00:22:29.047Z,97.98
2018-03-24T00:24:56.938Z,97.33
2018-03-24T00:27:24.850Z,96.98
2018-03-24T00:29:52.641Z,97.04
2018-03-24T00:32:20.931Z,96.85
2018-03-24T00:34:48.885Z,97.08
2018-03-24T00:37:16.531Z,97.12
2018-03-24T00:39:44.620Z,97.92
2018-03-24T00:42:12.384Z,98.40
2018-03-24T00:44:40.235Z,98.58
2018-03-24T00:47:07.948Z,98.40
2018-03-24T00:49:35.835Z,98.13
2018-03-24T00:52:03.651Z,98.05
2018-03-24T00:54:31.457Z,97.95
2018-03-24T00:56:59.847Z,97.48
2018-03-24T00:59:27.881Z,97.61
2018-03-24T01:01:55.898Z,97.84
2018-03-24T01:04:23.539Z,97.75
2018-03-24T01:06:51.526Z,96.68
2018-03-24T01:09:19.635Z,96.65
2018-03-24T01:11:47.720Z,96.37
2018-03-24T01:14:15.397Z,95.71
2018-03-24T01:16:43.537Z,97.01
2018-03-24T01:19:11.685Z,97.34
2018-03-24T01:21:39.362Z,97.73
2018-03-24T01:24:07.272Z,97.90
2018-03-24T01:26:35.021Z,97.64
2018-03-24T01:29:02.898Z,97.96
2018-03-24T01:31:30.546Z,98.46
2018-03-24T01:33:58.762Z,98.34
2018-03-24T01:36:26.866Z,97.93
2018-03-24T01:38:55.770Z,97.66
2018-03-24T01:41:24.160Z,96.97
2018-03-24T01:43:51.896Z,96.23
2018-03-24T01:46:19.972Z,96.31
2018-03-24T01:48:48.666Z,96.85
2018-03-24T01:51:16.819Z,97.67
2018-03-24T01:53:53.767Z,98.42
2018-03-24T01:56:21.505Z,98.55
2018-03-24T01:58:49.676Z,98.26
2018-03-24T02:01:18.365Z,98.43
2018-03-24T02:03:46.818Z,98.33
2018-03-24T02:06:14.772Z,98.26
2018-03-24T02:08:42.609Z,98.05
2018-03-24T02:11:11.227Z,97.88
2018-03-24T02:13:38.855Z,97.26
2018-03-24T02:16:06.725Z,96.60
2018-03-24T02:18:34.881Z,96.73
2018-03-24T02:21:05.625Z,96.68
2018-03-24T02:23:33.886Z,96.31
2018-03-24T02:26:02.386Z,96.15
2018-03-24T02:28:30.301Z,97.11
2018-03-24T02:30:58.149Z,97.02
2018-03-24T02:33:26.399Z,96.69
2018-03-24T02:35:54.850Z,96.78
2018-03-24T02:38:26.483Z,96.39
2018-03-24T02:40:54.495Z,96.51
2018-03-24T02:43:22.289Z,96.40
2018-03-24T02:45:50.130Z,96.11
2018-03-24T02:48:18.360Z,95.82
2018-03-24T02:50:46.181Z,96.37
2018-03-24T02:53:14.595Z,96.68
2018-03-24T02:55:42.621Z,96.36
2018-03-24T02:58:11.256Z,95.94
2018-03-24T03:00:39.462Z,95.08
2018-03-24T03:03:08.015Z,95.03
2018-03-24T03:05:36.032Z,95.91
2018-03-24T03:08:03.804Z,96.16
2018-03-24T03:10:31.702Z,96.60
2018-03-24T03:12:59.551Z,96.35
2018-03-24T03:15:27.619Z,96.66
2018-03-24T03:17:56.298Z,96.66
2018-03-24T03:20:24.300Z,97.01
2018-03-24T03:22:52.292Z,96.95
2018-03-24T03:25:20.376Z,96.75
2018-03-24T03:27:48.379Z,96.22
2018-03-24T03:30:18.565Z,95.50
2018-03-24T03:32:46.566Z,95.56
2018-03-24T03:35:14.486Z,95.51
2018-03-24T03:37:42.366Z,96.05
2018-03-24T03:40:10.592Z,96.64
2018-03-24T03:42:38.741Z,96.81
2018-03-24T03:45:06.441Z,96.65
2018-03-24T03:47:34.856Z,96.58
2018-03-24T03:50:02.704Z,96.20
2018-03-24T03:52:30.885Z,94.61
2018-03-24T03:54:58.831Z,95.07
2018-03-24T03:57:27.032Z,95.96
2018-03-24T03:59:54.677Z,96.73
2018-03-24T04:02:22.267Z,96.77
2018-03-24T04:04:50.494Z,96.50
2018-03-24T04:07:18.480Z,95.95
2018-03-24T04:09:47.481Z,96.06
2018-03-24T04:12:15.766Z,96.35
2018-03-24T04:14:43.876Z,96.30
2018-03-24T04:17:12.206Z,96.24
2018-03-24T04:19:41.337Z,96.84
2018-03-24T04:22:09.093Z,97.04
2018-03-24T04:24:37.010Z,97.16
2018-03-24T04:27:05.972Z,96.89
2018-03-24T04:29:33.664Z,97.06
2018-03-24T04:32:01.666Z,96.84
2018-03-24T04:34:29.432Z,97.00
2018-03-24T04:36:57.492Z,97.26
2018-03-24T04:39:25.546Z,97.35
2018-03-24T04:41:53.564Z,96.98
2018-03-24T04:44:21.360Z,97.19
2018-03-24T04:46:49.761Z,97.39
2018-03-24T04:49:17.959Z,97.06
2018-03-24T04:51:46.471Z,97.03
2018-03-24T04:54:14.331Z,97.16
2018-03-24T04:56:42.448Z,96.34
2018-03-24T04:59:11.235Z,95.91
2018-03-24T05:01:38.771Z,95.80
2018-03-24T05:04:06.842Z,96.15
2018-03-24T05:06:35.342Z,95.98
2018-03-24T05:09:03.130Z,95.96
2018-03-24T05:11:30.825Z,96.06
2018-03-24T05:13:59.404Z,96.18
2018-03-24T05:16:27.404Z,96.05
2018-03-24T05:18:55.821Z,95.53
2018-03-24T05:21:23.750Z,95.38
2018-03-24T05:23:52.030Z,95.09
2018-03-24T05:26:20.917Z,95.02
2018-03-24T05:28:48.759Z,94.34
2018-03-24T05:31:16.644Z,93.71
2018-03-24T05:33:45.379Z,94.36
2018-03-24T05:36:13.140Z,94.31
2018-03-24T05:38:40.955Z,94.49
2018-03-24T05:41:08.762Z,93.57
2018-03-24T05:43:36.585Z,94.08
2018-03-24T05:46:05.259Z,94.00
2018-03-24T05:48:33.180Z,93.73
2018-03-24T05:51:02.406Z,93.70
2018-03-24T05:53:31.471Z,93.07
2018-03-24T05:55:59.965Z,92.52
2018-03-24T05:58:27.600Z,91.58
2018-03-24T06:00:55.173Z,91.04
2018-03-24T06:03:22.856Z,90.79
2018-03-24T06:05:52.059Z,91.12
2018-03-24T06:08:19.879Z,90.30
2018-03-24T06:10:47.627Z,89.62
2018-03-24T06:13:15.831Z,89.99
2018-03-24T06:15:43.630Z,90.34
2018-03-24T06:18:13.249Z,89.24
2018-03-24T06:20:41.244Z,88.39
2018-03-24T06:23:08.928Z,88.90
2018-03-24T06:25:36.690Z,88.73
2018-03-24T06:28:04.990Z,86.56
2018-03-24T06:30:36.379Z,88.20
2018-03-24T06:33:04.802Z,85.93
2018-03-24T06:35:32.396Z,86.95
2018-03-24T06:38:00.263Z,85.35
2018-03-24T06:40:28.695Z,84.50
2018-03-24T06:42:56.641Z,82.63
2018-03-24T06:45:24.525Z,83.62
2018-03-24T06:47:52.595Z,83.99
2018-03-24T06:50:20.701Z,82.27
2018-03-24T06:52:49.405Z,82.58
2018-03-24T06:55:17.876Z,82.14
2018-03-24T06:57:46.136Z,80.79
2018-03-24T07:00:14.642Z,79.74
2018-03-24T07:02:42.709Z,80.20
2018-03-24T07:05:11.291Z,78.61
2018-03-24T07:07:39.296Z,76.34
2018-03-24T07:10:06.972Z,77.17
2018-03-24T07:12:34.804Z,76.38
2018-03-24T07:15:03.429Z,74.18
2018-03-24T07:17:32.691Z,77.05
2018-03-24T07:20:00.950Z,75.70
2018-03-24T07:22:30.800Z,70.16
2018-03-24T07:24:58.637Z,68.83
2018-03-24T07:27:26.811Z,67.44
2018-03-24T07:29:54.718Z,66.54
2018-03-24T07:32:22.405Z,71.91
2018-03-24T07:34:50.269Z,67.56
2018-03-24T07:37:19.121Z,66.26
2018-03-24T07:39:46.911Z,64.83
2018-03-24T07:42:15.114Z,64.79
2018-03-24T07:44:44.824Z,65.51
2018-03-24T07:47:13.484Z,63.21
2018-03-24T07:49:45.415Z,61.71
2018-03-24T07:52:13.239Z,60.90
2018-03-24T07:54:41.925Z,59.57
2018-03-24T07:57:11.040Z,61.51
2018-03-24T07:59:45.449Z,59.02
2018-03-24T08:02:13.476Z,61.07
2018-03-24T08:04:41.115Z,58.34
2018-03-24T08:07:08.912Z,60.29
2018-03-24T08:09:36.656Z,60.27
2018-03-24T08:12:05.226Z,59.99
2018-03-24T08:14:33.191Z,60.79
2018-03-24T08:17:01.495Z,61.40
2018-03-24T08:19:29.200Z,61.27
2018-03-24T08:21:57.011Z,59.72
2018-03-24T08:24:25.119Z,58.84
2018-03-24T08:26:54.390Z,60.17
2018-03-24T08:29:22.155Z,58.31
2018-03-24T08:31:49.852Z,57.09
2018-03-24T08:34:18.037Z,56.97
2018-03-24T08:36:47.393Z,56.56
2018-03-24T08:39:16.684Z,54.75
2018-03-24T08:41:45.652Z,54.19
2018-03-24T08:44:13.571Z,51.14
2018-03-24T08:46:41.695Z,52.88
2018-03-24T08:49:09.957Z,51.22
2018-03-24T08:51:37.562Z,52.81
2018-03-24T08:54:05.904Z,50.06
2018-03-24T08:56:33.881Z,47.34
2018-03-24T08:59:01.550Z,46.31
2018-03-24T09:01:29.402Z,46.04
2018-03-24T09:03:57.434Z,45.04
2018-03-24T09:06:25.185Z,44.50
2018-03-24T09:08:53.492Z,44.15
2018-03-24T09:11:21.477Z,41.49
2018-03-24T09:13:49.070Z,38.53
2018-03-24T09:16:16.867Z,36.23
2018-03-24T09:18:45.112Z,36.30
2018-03-24T09:21:13.311Z,36.83
2018-03-24T09:23:41.135Z,37.20
2018-03-24T09:26:09.227Z,37.81
2018-03-24T09:28:37.296Z,39.02
2018-03-24T09:31:05.180Z,40.07
2018-03-24T09:33:32.912Z,37.21
2018-03-24T09:36:01.131Z,36.23
2018-03-24T09:38:29.392Z,35.57
2018-03-24T09:40:56.945Z,35.50
2018-03-24T09:43:24.910Z,34.59
2018-03-24T09:45:52.725Z,34.13
2018-03-24T09:48:20.486Z,33.01
2018-03-24T09:50:48.562Z,30.93
2018-03-24T09:53:16.561Z,33.77
2018-03-24T09:55:44.682Z,32.45
2018-03-24T09:58:12.418Z,29.57
2018-03-24T10:00:40.386Z,31.90
2018-03-24T10:03:08.410Z,31.05
2018-03-24T10:05:36.655Z,30.76
2018-03-24T10:08:04.949Z,28.28
2018-03-24T10:10:33.126Z,25.72
2018-03-24T10:13:01.635Z,24.63
2018-03-24T10:15:30.285Z,25.82
2018-03-24T10:17:58.267Z,28.56
2018-03-24T10:20:32.916Z,29.14
2018-03-24T10:23:03.636Z,30.32
2018-03-24T10:25:31.347Z,29.15
2018-03-24T10:27:59.936Z,29.61
2018-03-24T10:30:27.667Z,29.81
2018-03-24T10:32:55.305Z,28.60
2018-03-24T10:35:22.894Z,29.31
2018-03-24T10:38:06.509Z,24.38
2018-03-24T10:40:34.165Z,24.78
2018-03-24T10:43:07.751Z,28.18
2018-03-24T10:45:35.688Z,28.33
2018-03-24T10:48:03.577Z,29.00
2018-03-24T10:50:31.159Z,28.65
2018-03-24T10:52:59.005Z,26.83
2018-03-24T10:55:27.435Z,24.17
2018-03-24T10:57:55.488Z,25.48
2018-03-24T11:00:38.485Z,25.58
2018-03-24T11:03:06.289Z,24.95
2018-03-24T11:05:33.850Z,23.12
2018-03-24T11:08:01.621Z,23.97
2018-03-24T11:10:30.907Z,27.20
2018-03-24T11:12:58.574Z,26.08
2018-03-24T11:15:26.288Z,24.87
2018-03-24T11:17:54.277Z,21.89
2018-03-24T11:20:22.374Z,26.20
2018-03-24T11:22:50.420Z,24.91
2018-03-24T11:25:18.235Z,24.01
2018-03-24T11:27:46.305Z,26.30
2018-03-24T11:30:14.254Z,26.10
2018-03-24T11:32:42.036Z,25.72
2018-03-24T11:35:09.804Z,24.47
2018-03-24T11:37:37.391Z,24.19
2018-03-24T11:40:05.416Z,23.92
2018-03-24T11:42:33.239Z,25.33
2018-03-24T11:45:01.265Z,25.72
2018-03-24T11:47:29.959Z,26.32
2018-03-24T11:49:57.716Z,23.54
2018-03-24T11:52:25.395Z,23.26
2018-03-24T11:54:53.709Z,19.50
2018-03-24T11:57:21.561Z,20.94
2018-03-24T11:59:49.672Z,21.56
2018-03-24T12:02:17.204Z,23.47
2018-03-24T12:04:44.950Z,22.68
2018-03-24T12:07:13.696Z,24.07
2018-03-24T12:09:41.350Z,25.10
2018-03-24T12:12:09.592Z,25.70
2018-03-24T12:14:37.584Z,26.38
2018-03-24T12:17:05.347Z,28.35
2018-03-24T12:19:32.970Z,29.42
2018-03-24T12:22:00.757Z,28.00
2018-03-24T12:24:28.714Z,29.88
2018-03-24T12:26:56.526Z,27.56
2018-03-24T12:29:24.091Z,22.85
2018-03-24T12:31:51.769Z,24.62
2018-03-24T12:34:19.734Z,25.93
2018-03-24T12:36:47.300Z,25.82
2018-03-24T12:39:15.344Z,28.68
2018-03-24T12:41:42.972Z,27.50
2018-03-24T12:44:10.663Z,29.76
2018-03-24T12:46:38.245Z,29.78
2018-03-24T12:49:06.171Z,29.46
2018-03-24T12:51:34.796Z,28.77
2018-03-24T12:54:02.732Z,26.86
2018-03-24T12:56:30.430Z,28.05
2018-03-24T12:58:59.359Z,26.72
2018-03-24T13:01:28.680Z,27.81
2018-03-24T13:03:56.215Z,25.31
2018-03-24T13:06:24.476Z,27.13
2018-03-24T13:08:52.227Z,27.83
2018-03-24T13:11:19.957Z,26.68
2018-03-24T13:13:47.724Z,24.79
2018-03-24T13:16:15.434Z,21.76
2018-03-24T13:18:43.110Z,22.15
2018-03-24T13:21:10.869Z,22.05
2018-03-24T13:23:38.823Z,25.04
2018-03-24T13:26:06.491Z,27.82
2018-03-24T13:28:34.413Z,24.78
2018-03-24T13:31:02.206Z,23.71
2018-03-24T13:33:30.049Z,27.30
2018-03-24T13:35:57.964Z,28.11
2018-03-24T13:38:25.974Z,26.16
2018-03-24T13:40:53.910Z,25.38
2018-03-24T13:43:21.597Z,25.40
2018-03-24T13:45:49.510Z,25.38
2018-03-24T13:48:17.994Z,22.77
2018-03-24T13:50:46.000Z,27.41
2018-03-24T13:53:14.783Z,28.18
2018-03-24T13:55:43.201Z,29.09
2018-03-24T13:58:11.621Z,28.14
2018-03-24T14:00:39.426Z,28.47
2018-03-24T14:03:07.126Z,24.94
2018-03-24T14:05:35.135Z,24.77
2018-03-24T14:08:03.101Z,27.83
2018-03-24T14:10:30.927Z,29.55
2018-03-24T14:12:58.935Z,30.14
2018-03-24T14:15:27.145Z,28.54
2018-03-24T14:17:55.305Z,27.09
2018-03-24T14:20:23.084Z,27.85
2018-03-24T14:22:51.188Z,27.91
2018-03-24T14:25:18.731Z,28.31
2018-03-24T14:27:46.565Z,30.25
2018-03-24T14:30:14.341Z,28.65
2018-03-24T14:32:42.785Z,29.06
2018-03-24T14:35:11.062Z,29.81
2018-03-24T14:37:39.091Z,31.24
2018-03-24T14:40:06.936Z,31.58
2018-03-24T14:42:34.713Z,31.54
2018-03-24T14:45:02.660Z,31.41
2018-03-24T14:47:31.170Z,33.48
2018-03-24T14:49:59.828Z,36.83
2018-03-24T14:52:28.985Z,37.94
2018-03-24T14:54:57.278Z,37.94
2018-03-24T14:57:25.266Z,38.49
2018-03-24T14:59:53.340Z,40.19
2018-03-24T15:02:22.308Z,39.90
2018-03-24T15:04:50.044Z,40.83
2018-03-24T15:07:17.937Z,41.52
2018-03-24T15:09:45.769Z,40.74
2018-03-24T15:12:13.630Z,41.40
2018-03-24T15:14:41.516Z,42.18
2018-03-24T15:17:09.165Z,41.16
2018-03-24T15:19:37.041Z,41.55
2018-03-24T15:22:04.837Z,41.41
2018-03-24T15:24:32.830Z,42.41
2018-03-24T15:27:00.561Z,41.52
2018-03-24T15:29:40.719Z,41.39
2018-03-24T15:32:20.921Z,41.91
2018-03-24T15:37:53.996Z,43.29
2018-03-24T15:40:22.766Z,43.76
2018-03-24T15:42:50.356Z,42.50
2018-03-24T15:45:18.782Z,43.18
2018-03-24T15:47:47.034Z,43.47
2018-03-24T15:50:15.141Z,44.03
2018-03-24T15:52:42.955Z,43.41
2018-03-24T15:55:10.717Z,43.28
2018-03-24T15:57:38.874Z,43.43
2018-03-24T16:00:07.073Z,44.56
2018-03-24T16:02:35.089Z,44.45
2018-03-24T16:05:04.185Z,44.95
2018-03-24T16:07:32.870Z,43.90
2018-03-24T16:10:00.495Z,44.84
2018-03-24T16:12:29.511Z,44.93
2018-03-24T16:14:57.314Z,44.02
2018-03-24T16:17:26.036Z,44.47
2018-03-24T16:19:53.934Z,44.08
2018-03-24T16:22:22.327Z,43.86
2018-03-24T16:24:50.333Z,43.76
2018-03-24T16:27:18.973Z,44.03
2018-03-24T16:29:47.239Z,43.95
2018-03-24T16:32:15.162Z,43.57
2018-03-24T16:34:43.682Z,44.51
2018-03-24T16:37:11.803Z,44.18
2018-03-24T16:39:40.094Z,43.81
2018-03-24T16:42:08.076Z,43.97
2018-03-24T16:44:36.221Z,44.37
2018-03-24T16:47:04.149Z,44.69
2018-03-24T16:49:32.113Z,45.16
2018-03-24T16:51:59.996Z,45.27
2018-03-24T16:54:28.213Z,44.72
2018-03-24T16:56:56.032Z,44.61
2018-03-24T16:59:23.816Z,45.08
2018-03-24T17:01:52.015Z,45.46
2018-03-24T17:04:21.237Z,45.62
2018-03-24T17:06:49.508Z,45.45
2018-03-24T17:09:17.859Z,45.84
2018-03-24T17:11:45.865Z,46.22
2018-03-24T17:14:13.755Z,46.34
2018-03-24T17:16:42.276Z,45.98
2018-03-24T17:19:10.212Z,46.56
2018-03-24T17:21:37.940Z,46.64
2018-03-24T17:24:06.465Z,48.12
2018-03-24T17:26:34.447Z,47.84
2018-03-24T17:29:02.323Z,47.77
2018-03-24T17:31:30.576Z,48.22
2018-03-24T17:33:59.461Z,49.52
2018-03-24T17:36:27.679Z,50.62
2018-03-24T17:38:55.976Z,49.76
2018-03-24T17:41:24.486Z,50.56
2018-03-24T17:43:52.602Z,51.73
2018-03-24T17:46:20.920Z,52.80
2018-03-24T17:48:49.065Z,53.04
2018-03-24T17:51:17.271Z,53.79
2018-03-24T17:53:45.691Z,52.80
2018-03-24T17:56:13.581Z,52.61
2018-03-24T17:58:41.296Z,53.65
2018-03-24T18:01:09.615Z,54.22
2018-03-24T18:03:38.065Z,55.11
2018-03-24T18:06:05.819Z,55.28
2018-03-24T18:08:34.021Z,55.32
2018-03-24T18:11:01.906Z,56.61
2018-03-24T18:13:30.326Z,56.59
2018-03-24T18:15:58.511Z,57.03
2018-03-24T18:18:27.325Z,59.09
2018-03-24T18:20:55.194Z,60.70
2018-03-24T18:23:23.220Z,59.87
2018-03-24T18:25:51.516Z,60.90
2018-03-24T18:28:19.392Z,61.79
2018-03-24T18:30:47.785Z,62.30
2018-03-24T18:33:16.854Z,63.07
2018-03-24T18:35:44.671Z,63.77
2018-03-24T18:38:12.656Z,63.66
2018-03-24T18:40:40.575Z,64.86
2018-03-24T18:43:08.499Z,64.96
2018-03-24T18:45:36.492Z,64.94
2018-03-24T18:48:04.366Z,66.16
2018-03-24T18:50:32.145Z,66.35
2018-03-24T18:52:59.860Z,67.06
2018-03-24T18:55:27.672Z,66.15
2018-03-24T18:57:55.612Z,65.99
2018-03-24T19:00:23.225Z,69.58
2018-03-24T19:02:50.871Z,68.79
2018-03-24T19:05:18.630Z,69.96
2018-03-24T19:07:46.388Z,70.24
2018-03-24T19:10:16.860Z,70.35
2018-03-24T19:12:45.339Z,71.22
2018-03-24T19:15:13.056Z,71.24
2018-03-24T19:17:40.695Z,70.90
2018-03-24T19:20:09.426Z,71.19
2018-03-24T19:22:37.052Z,71.54
2018-03-24T19:25:05.306Z,72.06
2018-03-24T19:27:33.043Z,72.72
2018-03-24T19:30:01.189Z,72.52
2018-03-24T19:32:28.757Z,74.19
2018-03-24T19:34:56.371Z,74.46
2018-03-24T19:37:24.190Z,74.69
2018-03-24T19:39:56.264Z,74.50
2018-03-24T19:42:24.059Z,76.92
2018-03-24T19:44:52.315Z,76.60
2018-03-24T19:47:20.120Z,78.63
2018-03-24T19:49:48.541Z,79.75
2018-03-24T19:52:16.146Z,79.51
2018-03-24T19:54:52.369Z,79.80
2018-03-24T19:57:20.053Z,79.36
2018-03-24T19:59:47.664Z,80.79
2018-03-24T20:02:16.086Z,80.72
2018-03-24T20:04:43.746Z,81.69
2018-03-24T20:07:13.029Z,80.77
2018-03-24T20:09:41.941Z,82.29
2018-03-24T20:12:11.525Z,83.16
2018-03-24T20:14:39.948Z,81.09
2018-03-24T20:17:07.776Z,83.71
2018-03-24T20:19:35.416Z,83.54
2018-03-24T20:22:03.180Z,83.16
2018-03-24T20:24:31.410Z,83.33
2018-03-24T20:26:59.119Z,83.42
2018-03-24T20:29:28.049Z,84.03
2018-03-24T20:31:57.030Z,85.19
2018-03-24T20:34:26.133Z,84.66
2018-03-24T20:36:54.585Z,84.52
2018-03-24T20:39:22.880Z,84.30
2018-03-24T20:41:50.524Z,86.15
2018-03-24T20:44:19.284Z,85.89
2018-03-24T20:46:46.944Z,86.03
2018-03-24T20:49:15.138Z,86.50
2018-03-24T20:51:42.818Z,86.03
2018-03-24T20:54:11.281Z,86.04
2018-03-24T20:56:38.990Z,86.28
2018-03-24T20:59:08.017Z,86.66
2018-03-24T21:01:35.755Z,86.19
2018-03-24T21:04:04.166Z,86.41
2018-03-24T21:06:31.849Z,86.90
2018-03-24T21:08:59.880Z,87.12
2018-03-24T21:11:27.561Z,86.78
2018-03-24T21:13:55.294Z,86.25
2018-03-24T21:16:23.174Z,87.63
2018-03-24T21:18:51.176Z,87.72
2018-03-24T21:21:19.011Z,87.52
2018-03-24T21:23:46.826Z,88.28
2018-03-24T21:26:14.684Z,88.42
2018-03-24T21:28:42.440Z,88.42
2018-03-24T21:31:10.375Z,87.97
2018-03-24T21:33:38.401Z,86.51
2018-03-24T21:36:06.468Z,85.83
2018-03-24T21:38:34.400Z,86.43
2018-03-24T21:41:03.077Z,87.78
2018-03-24T21:43:31.239Z,87.80
2018-03-24T21:45:59.070Z,88.60
2018-03-24T21:48:26.846Z,88.58
2018-03-24T21:50:55.050Z,88.65
2018-03-24T21:53:22.745Z,88.73
2018-03-24T21:55:50.475Z,88.15
2018-03-24T21:58:18.050Z,88.76
2018-03-24T22:00:46.071Z,89.26
2018-03-24T22:03:13.871Z,88.82
2018-03-24T22:05:41.596Z,88.26
2018-03-24T22:08:09.207Z,86.54
2018-03-24T22:10:37.628Z,85.95
2018-03-24T22:13:06.449Z,87.18
2018-03-24T22:15:34.035Z,88.13
2018-03-24T22:18:02.081Z,88.20
2018-03-24T22:20:29.818Z,88.68
2018-03-24T22:22:58.280Z,87.96
2018-03-24T22:25:26.027Z,87.90
2018-03-24T22:27:53.815Z,87.43
2018-03-24T22:30:21.555Z,89.12
2018-03-24T22:32:49.405Z,88.71
2018-03-24T22:35:17.640Z,89.13
2018-03-24T22:37:46.170Z,89.29
2018-03-24T22:40:13.954Z,89.54
2018-03-24T22:42:42.459Z,88.94
2018-03-24T22:45:11.251Z,89.56
2018-03-24T22:47:39.736Z,88.66
2018-03-24T22:50:08.414Z,89.21
2018-03-24T22:52:37.430Z,89.58
2018-03-24T22:55:05.456Z,90.08
2018-03-24T22:57:33.085Z,88.98
2018-03-24T23:00:01.349Z,88.88
2018-03-24T23:02:29.028Z,89.46
2018-03-24T23:04:57.058Z,88.05
2018-03-24T23:07:24.855Z,88.18
2018-03-24T23:09:52.959Z,87.47
2018-03-24T23:12:21.167Z,87.89
2018-03-24T23:14:49.106Z,89.05
2018-03-24T23:17:16.801Z,89.70
2018-03-24T23:19:44.880Z,90.60
2018-03-24T23:22:12.721Z,89.63
2018-03-24T23:24:41.065Z,90.27
2018-03-24T23:27:09.149Z,90.24
2018-03-24T23:29:36.820Z,90.12
2018-03-24T23:32:04.823Z,89.71
2018-03-24T23:34:33.334Z,90.21
2018-03-24T23:37:01.931Z,89.67
2018-03-24T23:39:29.869Z,90.43
2018-03-24T23:41:57.990Z,90.98
2018-03-24T23:44:26.115Z,89.51
2018-03-24T23:46:54.240Z,89.36
2018-03-24T23:49:22.445Z,90.08
2018-03-24T23:51:50.470Z,89.54
2018-03-24T23:54:18.280Z,88.50
2018-03-24T23:56:46.023Z,89.86
2018-03-24T23:59:14.741Z,90.45
